sensor_id;sensor_type;location;lat;lon;timestamp;P1;durP1;ratioP1;P2;durP2;ratioP2
22881;SDS011;11608;50.894;5.296;2023-07-13T00:02:14;19.35;;;17.85;;
22881;SDS011;11608;50.894;5.296;2023-07-13T00:04:41;19.30;;;17.58;;
22881;SDS011;11608;50.894;5.296;2023-07-13T00:07:07;18.88;;;17.20;;
22881;SDS011;11608;50.894;5.296;2023-07-13T00:09:34;18.98;;;17.38;;
22881;SDS011;11608;50.894;5.296;2023-07-13T00:12:00;18.65;;;17.15;;
22881;SDS011;11608;50.894;5.296;2023-07-13T00:14:27;19.88;;;18.27;;
22881;SDS011;11608;50.894;5.296;2023-07-13T00:16:54;18.88;;;17.55;;
22881;SDS011;11608;50.894;5.296;2023-07-13T00:19:20;18.88;;;17.48;;
22881;SDS011;11608;50.894;5.296;2023-07-13T00:21:47;19.27;;;17.58;;
22881;SDS011;11608;50.894;5.296;2023-07-13T00:24:15;19.58;;;17.65;;
22881;SDS011;11608;50.894;5.296;2023-07-13T00:26:42;19.70;;;17.80;;
22881;SDS011;11608;50.894;5.296;2023-07-13T00:29:11;19.38;;;17.85;;
22881;SDS011;11608;50.894;5.296;2023-07-13T00:31:37;19.15;;;17.67;;
22881;SDS011;11608;50.894;5.296;2023-07-13T00:34:04;18.77;;;17.17;;
22881;SDS011;11608;50.894;5.296;2023-07-13T00:36:30;19.13;;;17.40;;
22881;SDS011;11608;50.894;5.296;2023-07-13T00:38:56;18.95;;;17.27;;
22881;SDS011;11608;50.894;5.296;2023-07-13T00:41:22;19.60;;;17.83;;
22881;SDS011;11608;50.894;5.296;2023-07-13T00:43:48;19.25;;;17.65;;
22881;SDS011;11608;50.894;5.296;2023-07-13T00:48:44;19.27;;;17.50;;
22881;SDS011;11608;50.894;5.296;2023-07-13T00:51:11;19.40;;;17.90;;
22881;SDS011;11608;50.894;5.296;2023-07-13T00:53:37;20.05;;;18.35;;
22881;SDS011;11608;50.894;5.296;2023-07-13T00:56:04;19.08;;;17.42;;
22881;SDS011;11608;50.894;5.296;2023-07-13T00:58:30;19.23;;;17.80;;
22881;SDS011;11608;50.894;5.296;2023-07-13T01:00:56;19.50;;;17.90;;
22881;SDS011;11608;50.894;5.296;2023-07-13T01:03:22;19.58;;;17.67;;
22881;SDS011;11608;50.894;5.296;2023-07-13T01:05:49;20.33;;;18.60;;
22881;SDS011;11608;50.894;5.296;2023-07-13T01:08:15;19.27;;;17.67;;
22881;SDS011;11608;50.894;5.296;2023-07-13T01:10:50;19.80;;;18.10;;
22881;SDS011;11608;50.894;5.296;2023-07-13T01:13:16;20.45;;;18.63;;
22881;SDS011;11608;50.894;5.296;2023-07-13T01:15:43;20.05;;;18.23;;
22881;SDS011;11608;50.894;5.296;2023-07-13T01:18:11;19.75;;;18.13;;
22881;SDS011;11608;50.894;5.296;2023-07-13T01:20:38;19.50;;;17.98;;
22881;SDS011;11608;50.894;5.296;2023-07-13T01:23:08;18.85;;;17.42;;
22881;SDS011;11608;50.894;5.296;2023-07-13T01:25:35;19.58;;;17.88;;
22881;SDS011;11608;50.894;5.296;2023-07-13T01:28:02;19.35;;;17.75;;
22881;SDS011;11608;50.894;5.296;2023-07-13T01:30:28;19.85;;;18.00;;
22881;SDS011;11608;50.894;5.296;2023-07-13T01:32:54;20.10;;;18.08;;
22881;SDS011;11608;50.894;5.296;2023-07-13T01:35:20;18.42;;;17.02;;
22881;SDS011;11608;50.894;5.296;2023-07-13T01:37:46;18.45;;;17.15;;
22881;SDS011;11608;50.894;5.296;2023-07-13T01:40:13;19.33;;;17.73;;
22881;SDS011;11608;50.894;5.296;2023-07-13T01:42:39;19.00;;;17.27;;
22881;SDS011;11608;50.894;5.296;2023-07-13T01:45:05;19.83;;;18.02;;
22881;SDS011;11608;50.894;5.296;2023-07-13T01:47:31;19.38;;;17.70;;
22881;SDS011;11608;50.894;5.296;2023-07-13T01:49:57;18.80;;;17.30;;
22881;SDS011;11608;50.894;5.296;2023-07-13T01:52:23;19.30;;;17.50;;
22881;SDS011;11608;50.894;5.296;2023-07-13T01:54:49;19.10;;;17.40;;
22881;SDS011;11608;50.894;5.296;2023-07-13T01:57:15;19.67;;;18.00;;
22881;SDS011;11608;50.894;5.296;2023-07-13T01:59:41;19.35;;;17.83;;
22881;SDS011;11608;50.894;5.296;2023-07-13T02:02:07;20.50;;;18.15;;
22881;SDS011;11608;50.894;5.296;2023-07-13T02:04:34;20.40;;;18.50;;
22881;SDS011;11608;50.894;5.296;2023-07-13T02:07:00;19.50;;;17.77;;
22881;SDS011;11608;50.894;5.296;2023-07-13T02:09:25;19.90;;;18.08;;
22881;SDS011;11608;50.894;5.296;2023-07-13T02:11:51;19.75;;;18.05;;
22881;SDS011;11608;50.894;5.296;2023-07-13T02:14:17;20.08;;;18.27;;
22881;SDS011;11608;50.894;5.296;2023-07-13T02:16:43;19.63;;;18.13;;
22881;SDS011;11608;50.894;5.296;2023-07-13T02:19:09;20.38;;;18.80;;
22881;SDS011;11608;50.894;5.296;2023-07-13T02:21:35;20.17;;;18.33;;
22881;SDS011;11608;50.894;5.296;2023-07-13T02:24:01;20.17;;;18.13;;
22881;SDS011;11608;50.894;5.296;2023-07-13T02:26:27;19.48;;;17.85;;
22881;SDS011;11608;50.894;5.296;2023-07-13T02:28:53;20.25;;;18.08;;
22881;SDS011;11608;50.894;5.296;2023-07-13T02:31:19;20.17;;;18.50;;
22881;SDS011;11608;50.894;5.296;2023-07-13T02:33:45;19.60;;;17.80;;
22881;SDS011;11608;50.894;5.296;2023-07-13T02:36:12;19.83;;;17.92;;
22881;SDS011;11608;50.894;5.296;2023-07-13T02:38:42;19.40;;;17.73;;
22881;SDS011;11608;50.894;5.296;2023-07-13T02:41:08;19.60;;;17.73;;
22881;SDS011;11608;50.894;5.296;2023-07-13T02:43:34;20.00;;;18.20;;
22881;SDS011;11608;50.894;5.296;2023-07-13T02:46:01;19.55;;;17.73;;
22881;SDS011;11608;50.894;5.296;2023-07-13T02:48:32;20.35;;;18.67;;
22881;SDS011;11608;50.894;5.296;2023-07-13T02:50:58;19.38;;;17.80;;
22881;SDS011;11608;50.894;5.296;2023-07-13T02:53:24;20.08;;;18.38;;
22881;SDS011;11608;50.894;5.296;2023-07-13T02:55:51;20.60;;;18.88;;
22881;SDS011;11608;50.894;5.296;2023-07-13T02:58:18;21.00;;;19.00;;
22881;SDS011;11608;50.894;5.296;2023-07-13T03:00:44;19.90;;;18.27;;
22881;SDS011;11608;50.894;5.296;2023-07-13T03:03:11;20.67;;;18.75;;
22881;SDS011;11608;50.894;5.296;2023-07-13T03:05:40;22.75;;;19.10;;
22881;SDS011;11608;50.894;5.296;2023-07-13T03:08:07;20.90;;;18.92;;
22881;SDS011;11608;50.894;5.296;2023-07-13T03:10:33;20.55;;;18.83;;
22881;SDS011;11608;50.894;5.296;2023-07-13T03:12:59;20.17;;;18.23;;
22881;SDS011;11608;50.894;5.296;2023-07-13T03:15:25;20.35;;;18.35;;
22881;SDS011;11608;50.894;5.296;2023-07-13T03:17:51;20.25;;;18.23;;
22881;SDS011;11608;50.894;5.296;2023-07-13T03:20:17;20.35;;;18.33;;
22881;SDS011;11608;50.894;5.296;2023-07-13T03:22:43;20.40;;;18.58;;
22881;SDS011;11608;50.894;5.296;2023-07-13T03:25:09;21.08;;;18.88;;
22881;SDS011;11608;50.894;5.296;2023-07-13T03:27:35;20.63;;;18.80;;
22881;SDS011;11608;50.894;5.296;2023-07-13T03:30:02;20.92;;;19.15;;
22881;SDS011;11608;50.894;5.296;2023-07-13T03:32:28;21.15;;;19.23;;
22881;SDS011;11608;50.894;5.296;2023-07-13T03:34:54;20.50;;;18.60;;
22881;SDS011;11608;50.894;5.296;2023-07-13T03:37:20;20.13;;;18.30;;
22881;SDS011;11608;50.894;5.296;2023-07-13T03:39:46;20.42;;;18.35;;
22881;SDS011;11608;50.894;5.296;2023-07-13T03:42:12;20.75;;;18.67;;
22881;SDS011;11608;50.894;5.296;2023-07-13T03:44:39;19.73;;;17.90;;
22881;SDS011;11608;50.894;5.296;2023-07-13T03:47:05;20.42;;;18.35;;
22881;SDS011;11608;50.894;5.296;2023-07-13T03:49:31;20.13;;;18.33;;
22881;SDS011;11608;50.894;5.296;2023-07-13T03:51:57;21.00;;;19.00;;
22881;SDS011;11608;50.894;5.296;2023-07-13T03:54:23;20.75;;;18.67;;
22881;SDS011;11608;50.894;5.296;2023-07-13T03:56:49;24.35;;;19.30;;
22881;SDS011;11608;50.894;5.296;2023-07-13T03:59:15;21.05;;;19.02;;
22881;SDS011;11608;50.894;5.296;2023-07-13T04:01:43;20.85;;;18.83;;
22881;SDS011;11608;50.894;5.296;2023-07-13T04:04:09;21.35;;;19.27;;
22881;SDS011;11608;50.894;5.296;2023-07-13T04:06:35;21.48;;;19.25;;
22881;SDS011;11608;50.894;5.296;2023-07-13T04:09:02;21.13;;;19.27;;
22881;SDS011;11608;50.894;5.296;2023-07-13T04:11:30;20.60;;;18.65;;
22881;SDS011;11608;50.894;5.296;2023-07-13T04:13:57;21.05;;;18.90;;
22881;SDS011;11608;50.894;5.296;2023-07-13T04:16:24;21.00;;;19.10;;
22881;SDS011;11608;50.894;5.296;2023-07-13T04:18:50;21.00;;;19.08;;
22881;SDS011;11608;50.894;5.296;2023-07-13T04:21:20;22.33;;;19.50;;
22881;SDS011;11608;50.894;5.296;2023-07-13T04:23:46;21.45;;;19.20;;
22881;SDS011;11608;50.894;5.296;2023-07-13T04:26:12;20.98;;;18.95;;
22881;SDS011;11608;50.894;5.296;2023-07-13T04:28:38;21.75;;;19.73;;
22881;SDS011;11608;50.894;5.296;2023-07-13T04:31:04;21.05;;;18.80;;
22881;SDS011;11608;50.894;5.296;2023-07-13T04:33:31;21.35;;;19.25;;
22881;SDS011;11608;50.894;5.296;2023-07-13T04:35:57;21.35;;;19.08;;
22881;SDS011;11608;50.894;5.296;2023-07-13T04:38:24;19.88;;;18.15;;
22881;SDS011;11608;50.894;5.296;2023-07-13T04:40:52;20.00;;;18.17;;
22881;SDS011;11608;50.894;5.296;2023-07-13T04:43:18;20.60;;;18.60;;
22881;SDS011;11608;50.894;5.296;2023-07-13T04:45:44;22.48;;;19.58;;
22881;SDS011;11608;50.894;5.296;2023-07-13T04:48:10;20.42;;;18.45;;
22881;SDS011;11608;50.894;5.296;2023-07-13T04:50:37;22.67;;;18.80;;
22881;SDS011;11608;50.894;5.296;2023-07-13T04:53:03;21.20;;;18.95;;
22881;SDS011;11608;50.894;5.296;2023-07-13T04:55:29;21.02;;;18.92;;
22881;SDS011;11608;50.894;5.296;2023-07-13T04:57:55;21.63;;;18.50;;
22881;SDS011;11608;50.894;5.296;2023-07-13T05:00:23;19.55;;;17.65;;
22881;SDS011;11608;50.894;5.296;2023-07-13T05:02:49;19.70;;;17.80;;
22881;SDS011;11608;50.894;5.296;2023-07-13T05:05:16;19.60;;;17.98;;
22881;SDS011;11608;50.894;5.296;2023-07-13T05:07:42;20.20;;;18.17;;
22881;SDS011;11608;50.894;5.296;2023-07-13T05:10:09;20.48;;;18.40;;
22881;SDS011;11608;50.894;5.296;2023-07-13T05:12:35;21.27;;;19.33;;
22881;SDS011;11608;50.894;5.296;2023-07-13T05:15:01;20.67;;;18.52;;
22881;SDS011;11608;50.894;5.296;2023-07-13T05:17:28;22.75;;;18.60;;
22881;SDS011;11608;50.894;5.296;2023-07-13T05:19:54;19.15;;;17.65;;
22881;SDS011;11608;50.894;5.296;2023-07-13T05:22:20;20.35;;;18.27;;
22881;SDS011;11608;50.894;5.296;2023-07-13T05:24:46;20.48;;;18.58;;
22881;SDS011;11608;50.894;5.296;2023-07-13T05:27:12;20.10;;;18.13;;
22881;SDS011;11608;50.894;5.296;2023-07-13T05:29:38;20.02;;;18.33;;
22881;SDS011;11608;50.894;5.296;2023-07-13T05:32:04;20.85;;;18.75;;
22881;SDS011;11608;50.894;5.296;2023-07-13T05:34:30;20.00;;;18.17;;
22881;SDS011;11608;50.894;5.296;2023-07-13T05:36:57;19.88;;;18.13;;
22881;SDS011;11608;50.894;5.296;2023-07-13T05:39:23;19.85;;;17.95;;
22881;SDS011;11608;50.894;5.296;2023-07-13T05:41:49;20.17;;;18.20;;
22881;SDS011;11608;50.894;5.296;2023-07-13T05:44:15;19.83;;;18.00;;
22881;SDS011;11608;50.894;5.296;2023-07-13T05:46:41;18.95;;;17.55;;
22881;SDS011;11608;50.894;5.296;2023-07-13T05:49:07;19.95;;;18.05;;
22881;SDS011;11608;50.894;5.296;2023-07-13T05:51:33;20.33;;;18.17;;
22881;SDS011;11608;50.894;5.296;2023-07-13T05:53:59;20.75;;;18.63;;
22881;SDS011;11608;50.894;5.296;2023-07-13T05:56:25;24.77;;;18.98;;
22881;SDS011;11608;50.894;5.296;2023-07-13T05:58:51;20.58;;;18.88;;
22881;SDS011;11608;50.894;5.296;2023-07-13T06:01:17;20.90;;;18.77;;
22881;SDS011;11608;50.894;5.296;2023-07-13T06:03:45;20.58;;;18.73;;
22881;SDS011;11608;50.894;5.296;2023-07-13T06:06:11;21.13;;;18.90;;
22881;SDS011;11608;50.894;5.296;2023-07-13T06:08:37;21.45;;;19.50;;
22881;SDS011;11608;50.894;5.296;2023-07-13T06:11:05;22.40;;;19.52;;
22881;SDS011;11608;50.894;5.296;2023-07-13T06:13:31;21.55;;;19.30;;
22881;SDS011;11608;50.894;5.296;2023-07-13T06:15:58;21.95;;;19.35;;
22881;SDS011;11608;50.894;5.296;2023-07-13T06:18:24;21.00;;;18.92;;
22881;SDS011;11608;50.894;5.296;2023-07-13T06:20:50;21.30;;;19.10;;
22881;SDS011;11608;50.894;5.296;2023-07-13T06:23:16;21.67;;;19.48;;
22881;SDS011;11608;50.894;5.296;2023-07-13T06:25:42;20.20;;;18.00;;
22881;SDS011;11608;50.894;5.296;2023-07-13T06:28:09;21.08;;;18.88;;
22881;SDS011;11608;50.894;5.296;2023-07-13T06:30:35;21.98;;;19.90;;
22881;SDS011;11608;50.894;5.296;2023-07-13T06:33:01;19.63;;;17.83;;
22881;SDS011;11608;50.894;5.296;2023-07-13T06:35:27;20.27;;;18.25;;
22881;SDS011;11608;50.894;5.296;2023-07-13T06:37:53;19.45;;;17.65;;
22881;SDS011;11608;50.894;5.296;2023-07-13T06:40:19;20.23;;;18.23;;
22881;SDS011;11608;50.894;5.296;2023-07-13T06:42:45;20.27;;;18.05;;
22881;SDS011;11608;50.894;5.296;2023-07-13T06:45:11;20.65;;;18.48;;
22881;SDS011;11608;50.894;5.296;2023-07-13T06:47:37;20.08;;;18.27;;
22881;SDS011;11608;50.894;5.296;2023-07-13T06:50:03;20.90;;;18.67;;
22881;SDS011;11608;50.894;5.296;2023-07-13T06:52:29;20.23;;;18.42;;
22881;SDS011;11608;50.894;5.296;2023-07-13T06:54:55;21.10;;;19.02;;
22881;SDS011;11608;50.894;5.296;2023-07-13T06:57:21;21.50;;;19.25;;
22881;SDS011;11608;50.894;5.296;2023-07-13T06:59:47;20.20;;;18.50;;
22881;SDS011;11608;50.894;5.296;2023-07-13T07:02:13;22.15;;;19.88;;
22881;SDS011;11608;50.894;5.296;2023-07-13T07:04:39;19.45;;;17.75;;
22881;SDS011;11608;50.894;5.296;2023-07-13T07:07:05;21.52;;;19.27;;
22881;SDS011;11608;50.894;5.296;2023-07-13T07:09:31;20.38;;;18.73;;
22881;SDS011;11608;50.894;5.296;2023-07-13T07:11:57;20.65;;;18.95;;
22881;SDS011;11608;50.894;5.296;2023-07-13T07:14:23;20.33;;;18.58;;
22881;SDS011;11608;50.894;5.296;2023-07-13T07:16:49;20.33;;;18.35;;
22881;SDS011;11608;50.894;5.296;2023-07-13T07:19:16;20.33;;;18.13;;
22881;SDS011;11608;50.894;5.296;2023-07-13T07:21:42;20.52;;;18.70;;
22881;SDS011;11608;50.894;5.296;2023-07-13T07:24:08;20.40;;;18.70;;
22881;SDS011;11608;50.894;5.296;2023-07-13T07:26:34;21.05;;;18.92;;
22881;SDS011;11608;50.894;5.296;2023-07-13T07:29:00;19.80;;;17.95;;
22881;SDS011;11608;50.894;5.296;2023-07-13T07:31:26;20.58;;;18.77;;
22881;SDS011;11608;50.894;5.296;2023-07-13T07:33:52;21.45;;;19.08;;
22881;SDS011;11608;50.894;5.296;2023-07-13T07:36:18;21.05;;;18.90;;
22881;SDS011;11608;50.894;5.296;2023-07-13T07:38:44;21.67;;;19.38;;
22881;SDS011;11608;50.894;5.296;2023-07-13T07:41:10;21.75;;;19.60;;
22881;SDS011;11608;50.894;5.296;2023-07-13T07:43:36;21.08;;;18.98;;
22881;SDS011;11608;50.894;5.296;2023-07-13T07:46:02;20.38;;;18.52;;
22881;SDS011;11608;50.894;5.296;2023-07-13T07:48:28;22.52;;;19.65;;
22881;SDS011;11608;50.894;5.296;2023-07-13T07:50:54;20.52;;;18.67;;
22881;SDS011;11608;50.894;5.296;2023-07-13T07:53:20;20.33;;;18.50;;
22881;SDS011;11608;50.894;5.296;2023-07-13T07:55:46;20.85;;;18.83;;
22881;SDS011;11608;50.894;5.296;2023-07-13T07:58:12;20.15;;;18.10;;
22881;SDS011;11608;50.894;5.296;2023-07-13T08:00:39;20.77;;;18.67;;
22881;SDS011;11608;50.894;5.296;2023-07-13T08:03:05;20.15;;;18.27;;
22881;SDS011;11608;50.894;5.296;2023-07-13T08:05:31;20.83;;;18.88;;
22881;SDS011;11608;50.894;5.296;2023-07-13T08:07:57;21.48;;;18.70;;
22881;SDS011;11608;50.894;5.296;2023-07-13T08:10:23;20.13;;;18.35;;
22881;SDS011;11608;50.894;5.296;2023-07-13T08:12:49;20.55;;;18.48;;
22881;SDS011;11608;50.894;5.296;2023-07-13T08:15:16;20.17;;;18.08;;
22881;SDS011;11608;50.894;5.296;2023-07-13T08:17:42;19.38;;;17.33;;
22881;SDS011;11608;50.894;5.296;2023-07-13T08:20:08;20.42;;;17.85;;
22881;SDS011;11608;50.894;5.296;2023-07-13T08:22:35;19.55;;;17.70;;
22881;SDS011;11608;50.894;5.296;2023-07-13T08:25:01;19.65;;;17.92;;
22881;SDS011;11608;50.894;5.296;2023-07-13T08:27:27;19.30;;;17.65;;
22881;SDS011;11608;50.894;5.296;2023-07-13T08:29:54;19.42;;;17.67;;
22881;SDS011;11608;50.894;5.296;2023-07-13T08:32:20;19.10;;;17.40;;
22881;SDS011;11608;50.894;5.296;2023-07-13T08:34:47;19.58;;;17.77;;
22881;SDS011;11608;50.894;5.296;2023-07-13T08:37:14;19.73;;;17.67;;
22881;SDS011;11608;50.894;5.296;2023-07-13T08:39:40;19.27;;;17.77;;
22881;SDS011;11608;50.894;5.296;2023-07-13T08:42:11;20.92;;;19.00;;
22881;SDS011;11608;50.894;5.296;2023-07-13T08:44:48;19.65;;;18.10;;
22881;SDS011;11608;50.894;5.296;2023-07-13T08:47:19;20.02;;;18.17;;
22881;SDS011;11608;50.894;5.296;2023-07-13T08:49:47;20.98;;;19.08;;
22881;SDS011;11608;50.894;5.296;2023-07-13T08:52:16;20.02;;;17.98;;
22881;SDS011;11608;50.894;5.296;2023-07-13T08:54:49;19.05;;;17.38;;
22881;SDS011;11608;50.894;5.296;2023-07-13T08:57:20;19.38;;;17.48;;
22881;SDS011;11608;50.894;5.296;2023-07-13T08:59:47;20.00;;;18.30;;
22881;SDS011;11608;50.894;5.296;2023-07-13T09:02:16;20.35;;;18.17;;
22881;SDS011;11608;50.894;5.296;2023-07-13T09:04:47;19.40;;;17.73;;
22881;SDS011;11608;50.894;5.296;2023-07-13T09:07:18;20.67;;;18.77;;
22881;SDS011;11608;50.894;5.296;2023-07-13T09:09:54;19.42;;;17.63;;
22881;SDS011;11608;50.894;5.296;2023-07-13T09:14:49;18.55;;;17.05;;
22881;SDS011;11608;50.894;5.296;2023-07-13T09:17:21;19.95;;;18.20;;
22881;SDS011;11608;50.894;5.296;2023-07-13T09:19:50;19.20;;;17.50;;
22881;SDS011;11608;50.894;5.296;2023-07-13T09:22:19;18.63;;;16.80;;
22881;SDS011;11608;50.894;5.296;2023-07-13T09:27:17;19.42;;;17.70;;
22881;SDS011;11608;50.894;5.296;2023-07-13T09:29:47;19.17;;;17.50;;
22881;SDS011;11608;50.894;5.296;2023-07-13T09:32:14;19.40;;;17.73;;
22881;SDS011;11608;50.894;5.296;2023-07-13T09:34:49;19.15;;;17.45;;
22881;SDS011;11608;50.894;5.296;2023-07-13T09:37:16;20.70;;;18.70;;
22881;SDS011;11608;50.894;5.296;2023-07-13T09:39:42;20.75;;;18.20;;
22881;SDS011;11608;50.894;5.296;2023-07-13T09:42:16;19.10;;;17.38;;
22881;SDS011;11608;50.894;5.296;2023-07-13T09:47:22;20.88;;;18.25;;
22881;SDS011;11608;50.894;5.296;2023-07-13T09:49:54;18.30;;;16.73;;
22881;SDS011;11608;50.894;5.296;2023-07-13T09:52:20;18.50;;;16.98;;
22881;SDS011;11608;50.894;5.296;2023-07-13T09:54:48;20.38;;;18.30;;
22881;SDS011;11608;50.894;5.296;2023-07-13T09:57:18;18.15;;;16.75;;
22881;SDS011;11608;50.894;5.296;2023-07-13T09:59:46;19.50;;;17.60;;
22881;SDS011;11608;50.894;5.296;2023-07-13T10:02:26;18.52;;;17.02;;
22881;SDS011;11608;50.894;5.296;2023-07-13T10:04:56;18.90;;;17.40;;
22881;SDS011;11608;50.894;5.296;2023-07-13T10:07:23;19.20;;;17.50;;
22881;SDS011;11608;50.894;5.296;2023-07-13T10:09:53;18.13;;;16.58;;
22881;SDS011;11608;50.894;5.296;2023-07-13T10:12:19;19.50;;;17.60;;
22881;SDS011;11608;50.894;5.296;2023-07-13T10:14:48;19.25;;;17.70;;
22881;SDS011;11608;50.894;5.296;2023-07-13T10:17:16;19.92;;;18.05;;
22881;SDS011;11608;50.894;5.296;2023-07-13T10:19:45;18.85;;;17.33;;
22881;SDS011;11608;50.894;5.296;2023-07-13T10:24:58;19.23;;;17.23;;
22881;SDS011;11608;50.894;5.296;2023-07-13T10:27:31;18.80;;;17.10;;
22881;SDS011;11608;50.894;5.296;2023-07-13T10:29:59;19.08;;;17.25;;
22881;SDS011;11608;50.894;5.296;2023-07-13T10:32:27;18.95;;;17.45;;
22881;SDS011;11608;50.894;5.296;2023-07-13T10:34:53;17.75;;;16.30;;
22881;SDS011;11608;50.894;5.296;2023-07-13T10:37:29;18.73;;;17.02;;
22881;SDS011;11608;50.894;5.296;2023-07-13T10:39:57;18.13;;;16.67;;
22881;SDS011;11608;50.894;5.296;2023-07-13T10:45:18;18.35;;;16.75;;
22881;SDS011;11608;50.894;5.296;2023-07-13T10:47:45;18.50;;;17.00;;
22881;SDS011;11608;50.894;5.296;2023-07-13T10:50:17;18.67;;;17.00;;
22881;SDS011;11608;50.894;5.296;2023-07-13T10:52:51;18.50;;;16.88;;
22881;SDS011;11608;50.894;5.296;2023-07-13T10:58:14;17.80;;;16.40;;
22881;SDS011;11608;50.894;5.296;2023-07-13T11:00:44;18.42;;;16.80;;
22881;SDS011;11608;50.894;5.296;2023-07-13T11:03:13;20.00;;;18.40;;
22881;SDS011;11608;50.894;5.296;2023-07-13T11:05:40;19.88;;;18.08;;
22881;SDS011;11608;50.894;5.296;2023-07-13T11:08:19;19.17;;;17.58;;
22881;SDS011;11608;50.894;5.296;2023-07-13T11:10:53;19.40;;;17.83;;
22881;SDS011;11608;50.894;5.296;2023-07-13T11:13:35;19.58;;;17.63;;
22881;SDS011;11608;50.894;5.296;2023-07-13T11:16:01;19.35;;;17.55;;
22881;SDS011;11608;50.894;5.296;2023-07-13T11:18:37;19.70;;;17.85;;
22881;SDS011;11608;50.894;5.296;2023-07-13T11:21:13;19.40;;;17.70;;
22881;SDS011;11608;50.894;5.296;2023-07-13T11:23:43;19.67;;;17.88;;
22881;SDS011;11608;50.894;5.296;2023-07-13T11:28:55;19.90;;;17.95;;
22881;SDS011;11608;50.894;5.296;2023-07-13T11:31:21;19.70;;;17.98;;
22881;SDS011;11608;50.894;5.296;2023-07-13T11:33:50;20.00;;;18.13;;
22881;SDS011;11608;50.894;5.296;2023-07-13T11:36:18;20.08;;;18.00;;
22881;SDS011;11608;50.894;5.296;2023-07-13T11:38:50;20.63;;;18.83;;
22881;SDS011;11608;50.894;5.296;2023-07-13T11:41:21;19.80;;;17.98;;
22881;SDS011;11608;50.894;5.296;2023-07-13T11:43:54;19.77;;;18.08;;
22881;SDS011;11608;50.894;5.296;2023-07-13T11:46:25;18.98;;;17.50;;
22881;SDS011;11608;50.894;5.296;2023-07-13T11:48:52;19.45;;;17.95;;
22881;SDS011;11608;50.894;5.296;2023-07-13T11:51:19;20.08;;;18.30;;
22881;SDS011;11608;50.894;5.296;2023-07-13T11:53:47;19.92;;;17.95;;
22881;SDS011;11608;50.894;5.296;2023-07-13T11:56:14;20.40;;;18.55;;
22881;SDS011;11608;50.894;5.296;2023-07-13T11:58:40;19.38;;;17.77;;
22881;SDS011;11608;50.894;5.296;2023-07-13T12:01:12;19.35;;;17.90;;
22881;SDS011;11608;50.894;5.296;2023-07-13T12:03:41;19.67;;;18.00;;
22881;SDS011;11608;50.894;5.296;2023-07-13T12:06:19;19.60;;;18.00;;
22881;SDS011;11608;50.894;5.296;2023-07-13T12:08:47;19.25;;;17.75;;
22881;SDS011;11608;50.894;5.296;2023-07-13T12:11:16;18.73;;;17.17;;
22881;SDS011;11608;50.894;5.296;2023-07-13T12:13:43;20.25;;;18.38;;
22881;SDS011;11608;50.894;5.296;2023-07-13T12:16:20;19.67;;;18.17;;
22881;SDS011;11608;50.894;5.296;2023-07-13T12:18:47;18.55;;;17.15;;
22881;SDS011;11608;50.894;5.296;2023-07-13T12:21:16;18.70;;;17.30;;
22881;SDS011;11608;50.894;5.296;2023-07-13T12:23:43;18.55;;;17.02;;
22881;SDS011;11608;50.894;5.296;2023-07-13T12:26:10;19.35;;;17.98;;
22881;SDS011;11608;50.894;5.296;2023-07-13T12:31:04;20.02;;;18.38;;
22881;SDS011;11608;50.894;5.296;2023-07-13T12:33:31;19.48;;;17.92;;
22881;SDS011;11608;50.894;5.296;2023-07-13T12:35:59;19.00;;;17.38;;
22881;SDS011;11608;50.894;5.296;2023-07-13T12:38:26;19.20;;;17.75;;
22881;SDS011;11608;50.894;5.296;2023-07-13T12:40:53;19.95;;;18.13;;
22881;SDS011;11608;50.894;5.296;2023-07-13T12:43:22;19.33;;;17.73;;
22881;SDS011;11608;50.894;5.296;2023-07-13T12:45:56;20.25;;;18.70;;
22881;SDS011;11608;50.894;5.296;2023-07-13T12:48:22;18.40;;;17.10;;
22881;SDS011;11608;50.894;5.296;2023-07-13T12:50:49;18.67;;;17.27;;
22881;SDS011;11608;50.894;5.296;2023-07-13T12:53:19;18.23;;;16.77;;
22881;SDS011;11608;50.894;5.296;2023-07-13T12:55:47;18.63;;;17.33;;
22881;SDS011;11608;50.894;5.296;2023-07-13T12:58:16;19.42;;;17.92;;
22881;SDS011;11608;50.894;5.296;2023-07-13T13:00:47;19.25;;;17.85;;
22881;SDS011;11608;50.894;5.296;2023-07-13T13:05:56;19.30;;;17.80;;
22881;SDS011;11608;50.894;5.296;2023-07-13T13:08:22;18.65;;;17.20;;
22881;SDS011;11608;50.894;5.296;2023-07-13T13:10:48;19.08;;;17.50;;
22881;SDS011;11608;50.894;5.296;2023-07-13T13:13:14;18.77;;;17.38;;
22881;SDS011;11608;50.894;5.296;2023-07-13T13:15:40;18.63;;;17.33;;
22881;SDS011;11608;50.894;5.296;2023-07-13T13:18:16;18.80;;;17.40;;
22881;SDS011;11608;50.894;5.296;2023-07-13T13:20:42;19.10;;;17.70;;
22881;SDS011;11608;50.894;5.296;2023-07-13T13:23:15;19.90;;;18.17;;
22881;SDS011;11608;50.894;5.296;2023-07-13T13:25:43;19.48;;;17.98;;
22881;SDS011;11608;50.894;5.296;2023-07-13T13:28:16;19.10;;;17.52;;
22881;SDS011;11608;50.894;5.296;2023-07-13T13:30:43;18.23;;;16.92;;
22881;SDS011;11608;50.894;5.296;2023-07-13T13:33:10;19.17;;;17.77;;
22881;SDS011;11608;50.894;5.296;2023-07-13T13:35:37;19.33;;;17.88;;
22881;SDS011;11608;50.894;5.296;2023-07-13T13:38:16;19.38;;;17.65;;
22881;SDS011;11608;50.894;5.296;2023-07-13T13:40:43;18.95;;;17.40;;
22881;SDS011;11608;50.894;5.296;2023-07-13T13:43:21;19.25;;;17.75;;
22881;SDS011;11608;50.894;5.296;2023-07-13T13:45:51;19.30;;;17.80;;
22881;SDS011;11608;50.894;5.296;2023-07-13T13:48:18;18.77;;;17.38;;
22881;SDS011;11608;50.894;5.296;2023-07-13T13:50:44;19.00;;;17.50;;
22881;SDS011;11608;50.894;5.296;2023-07-13T13:53:11;18.95;;;17.48;;
22881;SDS011;11608;50.894;5.296;2023-07-13T13:55:38;19.13;;;17.70;;
22881;SDS011;11608;50.894;5.296;2023-07-13T13:58:06;18.65;;;17.25;;
22881;SDS011;11608;50.894;5.296;2023-07-13T14:00:32;18.70;;;17.25;;
22881;SDS011;11608;50.894;5.296;2023-07-13T14:02:58;18.52;;;17.05;;
22881;SDS011;11608;50.894;5.296;2023-07-13T14:05:25;18.65;;;17.27;;
22881;SDS011;11608;50.894;5.296;2023-07-13T14:07:51;19.27;;;17.63;;
22881;SDS011;11608;50.894;5.296;2023-07-13T14:10:18;18.52;;;17.20;;
22881;SDS011;11608;50.894;5.296;2023-07-13T14:12:45;19.17;;;17.88;;
22881;SDS011;11608;50.894;5.296;2023-07-13T14:15:22;19.67;;;18.15;;
22881;SDS011;11608;50.894;5.296;2023-07-13T14:17:49;19.52;;;18.10;;
22881;SDS011;11608;50.894;5.296;2023-07-13T14:20:15;18.80;;;17.27;;
22881;SDS011;11608;50.894;5.296;2023-07-13T14:22:42;19.35;;;17.95;;
22881;SDS011;11608;50.894;5.296;2023-07-13T14:25:13;19.67;;;18.17;;
22881;SDS011;11608;50.894;5.296;2023-07-13T14:27:40;19.30;;;18.00;;
22881;SDS011;11608;50.894;5.296;2023-07-13T14:30:13;18.80;;;17.33;;
22881;SDS011;11608;50.894;5.296;2023-07-13T14:32:39;18.98;;;17.38;;
22881;SDS011;11608;50.894;5.296;2023-07-13T14:35:05;18.85;;;17.42;;
22881;SDS011;11608;50.894;5.296;2023-07-13T14:37:32;18.92;;;17.42;;
22881;SDS011;11608;50.894;5.296;2023-07-13T14:39:58;19.40;;;17.80;;
22881;SDS011;11608;50.894;5.296;2023-07-13T14:42:24;18.85;;;17.23;;
22881;SDS011;11608;50.894;5.296;2023-07-13T14:44:50;19.27;;;17.77;;
22881;SDS011;11608;50.894;5.296;2023-07-13T14:47:16;19.00;;;17.60;;
22881;SDS011;11608;50.894;5.296;2023-07-13T14:49:43;18.40;;;17.10;;